createdAt,value
2023-05-02T00:00:52.069Z,9.48
2023-05-02T00:03:19.690Z,5.45
2023-05-02T00:05:46.936Z,5.57
2023-05-02T00:08:14.280Z,5.05
2023-05-02T00:10:41.338Z,4.68
2023-05-02T00:13:08.703Z,6.70
2023-05-02T00:15:35.860Z,6.15
2023-05-02T00:18:03.238Z,6.65
2023-05-02T00:20:30.428Z,5.13
2023-05-02T00:22:58.028Z,5.53
2023-05-02T00:25:25.069Z,4.80
2023-05-02T00:27:52.864Z,6.05
2023-05-02T00:30:21.178Z,5.28
2023-05-02T00:32:48.458Z,6.10
2023-05-02T00:35:15.748Z,4.80
2023-05-02T00:37:43.433Z,6.18
2023-05-02T00:40:11.243Z,5.22
2023-05-02T00:42:38.561Z,5.80
2023-05-02T00:45:06.795Z,6.18
2023-05-02T00:47:34.595Z,8.00
2023-05-02T00:50:02.655Z,5.55
2023-05-02T00:52:30.224Z,7.22
2023-05-02T00:54:57.848Z,5.35
2023-05-02T00:57:27.871Z,7.07
2023-05-02T00:59:55.393Z,5.35
2023-05-02T01:02:59.626Z,6.85
2023-05-02T01:05:43.941Z,6.97
2023-05-02T01:08:28.462Z,4.72
2023-05-02T01:11:17.444Z,10.05
2023-05-02T01:13:46.935Z,4.90
2023-05-02T01:16:16.197Z,8.00
2023-05-02T01:18:44.935Z,5.70
2023-05-02T01:21:13.097Z,5.18
2023-05-02T01:23:46.130Z,6.00
2023-05-02T01:26:31.053Z,5.25
2023-05-02T01:29:07.806Z,5.35
2023-05-02T01:31:37.992Z,5.07
2023-05-02T01:34:10.284Z,5.97
2023-05-02T01:36:45.794Z,5.05
2023-05-02T01:39:18.622Z,4.97
2023-05-02T01:41:49.209Z,5.05
2023-05-02T01:44:18.556Z,7.00
2023-05-02T01:46:46.383Z,5.03
2023-05-02T01:49:13.916Z,5.05
2023-05-02T01:51:48.845Z,5.25
2023-05-02T01:54:17.853Z,5.43
2023-05-02T01:56:45.619Z,6.18
2023-05-02T01:59:19.801Z,5.40
2023-05-02T02:01:48.364Z,4.75
2023-05-02T02:04:16.734Z,5.22
2023-05-02T02:06:48.416Z,5.90
2023-05-02T02:09:16.048Z,5.20
2023-05-02T02:11:50.912Z,5.05
2023-05-02T02:16:53.622Z,5.22
2023-05-02T02:19:22.775Z,5.80
2023-05-02T02:21:50.876Z,5.90
2023-05-02T02:24:22.701Z,5.30
2023-05-02T02:26:50.901Z,6.13
2023-05-02T02:29:18.283Z,5.47
2023-05-02T02:31:46.814Z,5.60
2023-05-02T02:34:15.709Z,5.65
2023-05-02T02:36:56.341Z,6.22
2023-05-02T02:40:01.479Z,4.88
2023-05-02T02:42:40.978Z,5.18
2023-05-02T02:45:38.524Z,5.13
2023-05-02T02:48:16.633Z,5.60
2023-05-02T02:51:04.492Z,6.57
2023-05-02T02:53:49.330Z,6.32
2023-05-02T02:56:39.564Z,5.43
2023-05-02T02:59:12.573Z,5.38
2023-05-02T03:01:44.063Z,5.43
2023-05-02T03:04:13.555Z,5.43
2023-05-02T03:06:41.515Z,5.50
2023-05-02T03:09:18.640Z,5.30
2023-05-02T03:11:47.727Z,5.50
2023-05-02T03:14:15.933Z,5.18
2023-05-02T03:16:43.316Z,6.22
2023-05-02T03:19:14.864Z,5.63
2023-05-02T03:21:42.756Z,5.82
2023-05-02T03:24:19.273Z,5.75
2023-05-02T03:26:48.139Z,5.28
2023-05-02T03:29:17.950Z,5.72
2023-05-02T03:31:45.760Z,5.85
2023-05-02T03:34:13.320Z,5.85
2023-05-02T03:36:41.564Z,5.93
2023-05-02T03:39:08.772Z,4.95
2023-05-02T03:41:36.094Z,5.30
2023-05-02T03:44:07.692Z,5.15
2023-05-02T03:46:35.233Z,6.10
2023-05-02T03:49:06.048Z,6.07
2023-05-02T03:51:34.216Z,5.60
2023-05-02T03:54:02.831Z,5.32
2023-05-02T03:56:30.262Z,4.97
2023-05-02T03:59:08.953Z,5.18
2023-05-02T04:01:36.697Z,5.15
2023-05-02T04:04:04.511Z,5.68
2023-05-02T04:06:38.329Z,5.20
2023-05-02T04:09:07.924Z,5.20
2023-05-02T04:11:49.301Z,5.88
2023-05-02T04:14:16.407Z,4.90
2023-05-02T04:16:49.341Z,5.07
2023-05-02T04:19:19.773Z,5.35
2023-05-02T04:21:47.548Z,5.50
2023-05-02T04:24:15.342Z,5.32
2023-05-02T04:26:43.102Z,4.90
2023-05-02T04:29:13.591Z,5.28
2023-05-02T04:31:42.424Z,5.18
2023-05-02T04:34:10.810Z,7.55
2023-05-02T04:36:45.805Z,8.10
2023-05-02T04:39:16.127Z,7.18
2023-05-02T04:41:52.125Z,5.00
2023-05-02T04:44:20.400Z,4.90
2023-05-02T04:46:47.963Z,5.57
2023-05-02T04:49:15.137Z,5.45
2023-05-02T04:51:42.805Z,6.25
2023-05-02T04:54:09.988Z,4.90
2023-05-02T04:56:37.707Z,5.60
2023-05-02T04:59:05.103Z,5.75
2023-05-02T05:01:33.851Z,5.60
2023-05-02T05:04:02.686Z,5.32
2023-05-02T05:06:30.360Z,6.13
2023-05-02T05:08:57.747Z,4.93
2023-05-02T05:11:26.343Z,5.78
2023-05-02T05:13:53.747Z,5.63
2023-05-02T05:16:21.541Z,6.15
2023-05-02T05:18:49.433Z,6.03
2023-05-02T05:21:17.017Z,6.13
2023-05-02T05:23:46.253Z,7.03
2023-05-02T05:26:17.933Z,6.38
2023-05-02T05:28:48.143Z,6.38
2023-05-02T05:31:18.495Z,5.80
2023-05-02T05:33:49.880Z,5.85
2023-05-02T05:36:17.742Z,11.70
2023-05-02T05:38:46.226Z,10.32
2023-05-02T05:41:14.301Z,9.50
2023-05-02T05:43:46.694Z,6.50
2023-05-02T05:46:14.227Z,6.28
2023-05-02T05:48:41.325Z,6.47
2023-05-02T05:51:09.332Z,5.68
2023-05-02T05:53:36.526Z,5.65
2023-05-02T05:56:10.766Z,6.55
2023-05-02T05:58:39.860Z,6.85
2023-05-02T06:01:08.341Z,5.90
2023-05-02T06:03:36.516Z,6.15
2023-05-02T06:06:04.607Z,7.03
2023-05-02T06:08:32.164Z,6.85
2023-05-02T06:10:59.538Z,6.38
2023-05-02T06:13:26.670Z,5.45
2023-05-02T06:15:54.101Z,6.43
2023-05-02T06:18:21.610Z,6.95
2023-05-02T06:20:48.913Z,9.32
2023-05-02T06:23:16.086Z,6.88
2023-05-02T06:25:43.360Z,6.10
2023-05-02T06:28:10.381Z,6.43
2023-05-02T06:30:37.854Z,7.53
2023-05-02T06:33:05.492Z,7.35
2023-05-02T06:35:32.882Z,14.10
2023-05-02T06:37:59.973Z,14.38
2023-05-02T06:40:30.407Z,11.13
2023-05-02T06:42:57.490Z,9.75
2023-05-02T06:45:24.913Z,10.18
2023-05-02T06:47:51.912Z,6.80
2023-05-02T06:50:21.071Z,6.82
2023-05-02T06:52:48.157Z,8.88
2023-05-02T06:55:15.647Z,6.63
2023-05-02T06:57:43.685Z,7.78
2023-05-02T07:00:11.544Z,7.53
2023-05-02T07:02:38.771Z,8.13
2023-05-02T07:05:06.534Z,7.38
2023-05-02T07:07:33.593Z,8.20
2023-05-02T07:10:01.139Z,10.50
2023-05-02T07:12:28.797Z,16.55
2023-05-02T07:14:56.262Z,9.15
2023-05-02T07:17:24.413Z,7.55
2023-05-02T07:19:52.272Z,21.45
2023-05-02T07:22:19.800Z,9.05
2023-05-02T07:24:47.141Z,9.25
2023-05-02T07:27:14.180Z,9.05
2023-05-02T07:29:42.719Z,8.30
2023-05-02T07:32:10.082Z,8.88
2023-05-02T07:34:37.197Z,6.50
2023-05-02T07:37:04.463Z,7.30
2023-05-02T07:39:33.286Z,7.38
2023-05-02T07:42:03.471Z,8.38
2023-05-02T07:44:33.275Z,8.48
2023-05-02T07:47:00.603Z,9.63
2023-05-02T07:49:27.940Z,9.40
2023-05-02T07:51:56.196Z,9.70
2023-05-02T07:54:26.418Z,12.18
2023-05-02T07:56:58.235Z,8.60
2023-05-02T07:59:25.438Z,9.85
2023-05-02T08:01:53.033Z,8.85
2023-05-02T08:04:20.226Z,9.30
2023-05-02T08:06:48.644Z,8.45
2023-05-02T08:09:15.770Z,9.60
2023-05-02T08:11:43.072Z,8.43
2023-05-02T08:14:11.334Z,7.78
2023-05-02T08:16:38.925Z,7.38
2023-05-02T08:19:06.204Z,7.07
2023-05-02T08:21:34.210Z,7.43
2023-05-02T08:24:01.536Z,7.93
2023-05-02T08:26:29.071Z,12.32
2023-05-02T08:28:56.178Z,9.45
2023-05-02T08:31:23.535Z,9.05
2023-05-02T08:33:50.623Z,8.73
2023-05-02T08:36:18.629Z,10.05
2023-05-02T08:38:46.909Z,19.73
2023-05-02T08:41:19.626Z,22.30
2023-05-02T08:43:47.871Z,16.38
2023-05-02T08:46:17.649Z,20.35
2023-05-02T08:48:48.225Z,20.92
2023-05-02T08:51:16.999Z,16.95
2023-05-02T08:53:44.601Z,14.18
2023-05-02T08:56:13.114Z,19.90
2023-05-02T08:58:41.738Z,16.35
2023-05-02T09:01:14.972Z,16.10
2023-05-02T09:03:44.706Z,10.88
2023-05-02T09:06:15.215Z,25.50
2023-05-02T09:08:44.359Z,31.50
2023-05-02T09:11:13.046Z,45.22
2023-05-02T09:13:42.224Z,30.27
2023-05-02T09:16:18.021Z,16.15
2023-05-02T09:18:50.380Z,16.00
2023-05-02T09:21:37.497Z,14.82
2023-05-02T09:24:25.255Z,9.95
2023-05-02T09:27:03.035Z,16.30
2023-05-02T09:29:36.012Z,15.82
2023-05-02T09:32:05.754Z,20.20
2023-05-02T09:34:34.061Z,69.40
2023-05-02T09:37:02.802Z,69.32
2023-05-02T09:39:29.835Z,32.67
2023-05-02T09:41:58.564Z,18.23
2023-05-02T09:44:27.874Z,18.83
2023-05-02T09:46:57.537Z,15.25
2023-05-02T09:49:50.656Z,12.15
2023-05-02T09:52:23.550Z,12.25
2023-05-02T09:54:52.318Z,12.10
2023-05-02T09:57:19.973Z,13.35
2023-05-02T09:59:58.378Z,13.18
2023-05-02T10:02:26.461Z,8.95
2023-05-02T10:04:56.960Z,12.77
2023-05-02T10:07:26.354Z,11.05
2023-05-02T10:09:59.389Z,11.85
2023-05-02T10:12:30.425Z,14.85
2023-05-02T10:15:02.439Z,13.88
2023-05-02T10:17:34.239Z,16.95
2023-05-02T10:20:04.856Z,13.07
2023-05-02T10:22:34.304Z,12.02
2023-05-02T10:25:03.642Z,26.70
2023-05-02T10:27:32.531Z,13.13
2023-05-02T10:30:01.017Z,8.70
2023-05-02T10:32:31.877Z,8.90
2023-05-02T10:35:03.888Z,8.63
2023-05-02T10:37:36.522Z,8.57
2023-05-02T10:40:05.892Z,7.75
2023-05-02T10:42:38.766Z,7.93
2023-05-02T10:45:10.957Z,7.93
2023-05-02T10:47:38.349Z,10.40
2023-05-02T10:50:06.148Z,7.97
2023-05-02T10:52:41.368Z,6.32
2023-05-02T10:58:00.520Z,6.90
2023-05-02T11:00:30.214Z,7.70
2023-05-02T11:02:57.963Z,7.05
2023-05-02T11:05:26.448Z,7.15
2023-05-02T11:08:23.487Z,5.85
2023-05-02T11:10:50.594Z,5.40
2023-05-02T11:13:50.937Z,5.60
2023-05-02T11:16:19.478Z,5.50
2023-05-02T11:18:59.344Z,8.35
2023-05-02T11:21:29.960Z,4.97
2023-05-02T11:24:34.939Z,5.47
2023-05-02T11:27:33.668Z,7.28
2023-05-02T11:30:02.092Z,4.85
2023-05-02T11:32:48.727Z,5.03
2023-05-02T11:35:18.892Z,7.90
2023-05-02T11:37:58.088Z,6.85
2023-05-02T11:40:27.153Z,6.03
2023-05-02T11:42:54.729Z,5.50
2023-05-02T11:45:23.883Z,4.90
2023-05-02T11:47:51.778Z,5.10
2023-05-02T11:50:19.398Z,5.68
2023-05-02T11:52:47.232Z,5.53
2023-05-02T11:55:16.687Z,6.18
2023-05-02T11:57:44.273Z,3.85
2023-05-02T12:00:13.000Z,6.40
2023-05-02T12:02:45.040Z,3.90
2023-05-02T12:05:14.431Z,4.18
2023-05-02T12:07:49.488Z,3.85
2023-05-02T12:10:17.064Z,5.30
2023-05-02T12:12:44.924Z,7.68
2023-05-02T12:15:13.446Z,6.28
2023-05-02T12:17:45.560Z,4.70
2023-05-02T12:20:17.517Z,5.90
2023-05-02T12:22:44.822Z,5.22
2023-05-02T12:25:12.340Z,6.22
2023-05-02T12:27:39.525Z,4.75
2023-05-02T12:30:07.785Z,8.05
2023-05-02T12:32:36.406Z,5.40
2023-05-02T12:35:04.297Z,5.32
2023-05-02T12:37:31.439Z,6.20
2023-05-02T12:39:58.871Z,4.32
2023-05-02T12:42:27.202Z,5.70
2023-05-02T12:44:57.030Z,4.03
2023-05-02T12:47:24.978Z,5.57
2023-05-02T12:49:59.839Z,5.72
2023-05-02T12:52:46.389Z,4.10
2023-05-02T12:55:24.573Z,4.70
2023-05-02T12:57:59.747Z,4.00
2023-05-02T13:00:27.035Z,6.47
2023-05-02T13:02:54.155Z,10.50
2023-05-02T13:05:21.624Z,4.75
2023-05-02T13:07:48.642Z,3.85
2023-05-02T13:10:18.112Z,5.07
2023-05-02T13:12:47.071Z,4.75
2023-05-02T13:15:15.420Z,5.88
2023-05-02T13:17:43.151Z,4.55
2023-05-02T13:20:11.229Z,4.97
2023-05-02T13:22:38.649Z,5.15
2023-05-02T13:25:10.498Z,3.80
2023-05-02T13:27:37.494Z,3.40
2023-05-02T13:30:08.784Z,3.03
2023-05-02T13:32:39.085Z,4.00
2023-05-02T13:35:09.461Z,4.28
2023-05-02T13:37:36.511Z,3.17
2023-05-02T13:40:05.137Z,3.28
2023-05-02T13:42:32.542Z,3.53
2023-05-02T13:45:00.029Z,3.65
2023-05-02T13:47:27.170Z,4.93
2023-05-02T13:49:54.593Z,4.72
2023-05-02T13:52:21.547Z,5.10
2023-05-02T13:54:49.158Z,4.40
2023-05-02T13:57:16.150Z,4.00
2023-05-02T13:59:43.941Z,4.13
2023-05-02T14:02:10.951Z,6.55
2023-05-02T14:04:38.323Z,5.07
2023-05-02T14:07:05.336Z,6.25
2023-05-02T14:09:33.921Z,5.47
2023-05-02T14:12:02.235Z,5.97
2023-05-02T14:14:29.702Z,5.93
2023-05-02T14:16:56.764Z,5.43
2023-05-02T14:19:24.030Z,4.22
2023-05-02T14:21:51.157Z,3.85
2023-05-02T14:24:19.401Z,3.03
2023-05-02T14:26:46.608Z,3.85
2023-05-02T14:29:14.147Z,3.45
2023-05-02T14:31:41.405Z,3.78
2023-05-02T14:34:09.039Z,4.70
2023-05-02T14:36:36.183Z,4.47
2023-05-02T14:39:03.652Z,3.80
2023-05-02T14:41:30.700Z,3.67
2023-05-02T14:43:57.995Z,4.05
2023-05-02T14:46:25.035Z,4.00
2023-05-02T14:48:52.349Z,3.50
2023-05-02T14:51:22.150Z,4.75
2023-05-02T14:53:49.633Z,5.68
2023-05-02T14:56:19.698Z,4.22
2023-05-02T14:58:47.457Z,4.22
2023-05-02T15:01:21.735Z,3.20
2023-05-02T15:04:05.977Z,4.78
2023-05-02T15:06:36.926Z,4.18
2023-05-02T15:09:05.115Z,4.20
2023-05-02T15:11:34.384Z,4.40
2023-05-02T15:14:01.745Z,4.72
2023-05-02T15:16:29.981Z,5.00
2023-05-02T15:18:57.920Z,4.95
2023-05-02T15:21:25.163Z,5.03
2023-05-02T15:23:53.011Z,4.88
2023-05-02T15:26:20.177Z,4.70
2023-05-02T15:28:47.458Z,5.35
2023-05-02T15:31:14.442Z,5.60
2023-05-02T15:33:41.750Z,5.88
2023-05-02T15:36:09.362Z,4.80
2023-05-02T15:38:39.620Z,6.03
2023-05-02T15:41:08.049Z,5.00
2023-05-02T15:43:39.709Z,5.20
2023-05-02T15:46:07.148Z,5.93
2023-05-02T15:48:34.984Z,4.68
2023-05-02T15:51:03.169Z,5.07
2023-05-02T15:53:30.756Z,5.15
2023-05-02T15:55:57.854Z,5.35
2023-05-02T15:58:25.508Z,5.80
2023-05-02T16:00:55.252Z,5.47
2023-05-02T16:03:22.922Z,7.32
2023-05-02T16:05:52.854Z,6.07
2023-05-02T16:08:23.148Z,7.63
2023-05-02T16:10:51.641Z,9.95
2023-05-02T16:13:19.554Z,8.75
2023-05-02T16:15:53.529Z,8.18
2023-05-02T16:18:23.076Z,9.30
2023-05-02T16:20:57.536Z,7.80
2023-05-02T16:23:25.855Z,9.00
2023-05-02T16:25:59.906Z,10.20
2023-05-02T16:28:27.550Z,9.43
2023-05-02T16:30:54.768Z,9.55
2023-05-02T16:33:22.394Z,11.18
2023-05-02T16:35:49.575Z,8.60
2023-05-02T16:38:19.274Z,8.30
2023-05-02T16:40:47.080Z,9.60
2023-05-02T16:43:15.181Z,7.70
2023-05-02T16:45:42.793Z,14.50
2023-05-02T16:48:11.157Z,10.10
2023-05-02T16:50:38.236Z,15.90
2023-05-02T16:53:06.214Z,12.50
2023-05-02T16:55:33.568Z,10.50
2023-05-02T16:58:00.972Z,24.20
2023-05-02T17:00:31.143Z,15.05
2023-05-02T17:02:58.558Z,10.85
2023-05-02T17:05:26.189Z,11.43
2023-05-02T17:07:53.750Z,12.18
2023-05-02T17:10:21.679Z,10.55
2023-05-02T17:12:49.498Z,6.80
2023-05-02T17:15:16.913Z,8.85
2023-05-02T17:17:44.357Z,10.45
2023-05-02T17:20:11.840Z,18.80
2023-05-02T17:22:41.526Z,9.40
2023-05-02T17:25:10.846Z,7.60
2023-05-02T17:27:40.712Z,11.13
2023-05-02T17:30:08.986Z,8.98
2023-05-02T17:32:37.807Z,8.18
2023-05-02T17:35:08.976Z,6.13
2023-05-02T17:37:39.937Z,8.60
2023-05-02T17:40:07.937Z,6.90
2023-05-02T17:42:35.441Z,5.82
2023-05-02T17:45:02.910Z,8.00
2023-05-02T17:47:30.388Z,5.88
2023-05-02T17:49:57.607Z,7.78
2023-05-02T17:52:25.010Z,7.90
2023-05-02T17:54:52.036Z,17.08
2023-05-02T17:57:22.715Z,8.60
2023-05-02T17:59:53.014Z,6.80
2023-05-02T18:02:22.324Z,7.60
2023-05-02T18:04:50.005Z,8.15
2023-05-02T18:07:23.665Z,53.60
2023-05-02T18:09:53.998Z,11.23
2023-05-02T18:12:21.299Z,10.18
2023-05-02T18:14:49.223Z,8.30
2023-05-02T18:17:20.436Z,6.53
2023-05-02T18:19:50.600Z,5.63
2023-05-02T18:22:20.132Z,5.80
2023-05-02T18:24:50.889Z,5.95
2023-05-02T18:27:18.301Z,6.15
2023-05-02T18:29:45.466Z,6.35
2023-05-02T18:32:14.424Z,5.45
2023-05-02T18:34:41.554Z,5.88
2023-05-02T18:37:09.789Z,5.85
2023-05-02T18:39:36.763Z,9.55
2023-05-02T18:42:04.790Z,29.20
2023-05-02T18:44:32.392Z,49.97
2023-05-02T18:46:59.936Z,28.80
2023-05-02T18:49:27.280Z,24.92
2023-05-02T18:51:54.822Z,13.82
2023-05-02T18:54:24.438Z,35.28
2023-05-02T18:56:52.038Z,17.20
2023-05-02T18:59:19.352Z,12.15
2023-05-02T19:01:48.768Z,8.05
2023-05-02T19:04:16.439Z,8.52
2023-05-02T19:06:44.062Z,6.25
2023-05-02T19:09:15.583Z,11.68
2023-05-02T19:11:43.161Z,8.95
2023-05-02T19:14:14.133Z,10.57
2023-05-02T19:16:43.326Z,5.47
2023-05-02T19:19:10.501Z,6.47
2023-05-02T19:21:38.008Z,8.57
2023-05-02T19:24:05.554Z,14.02
2023-05-02T19:26:33.021Z,8.43
2023-05-02T19:29:00.141Z,10.13
2023-05-02T19:31:31.712Z,7.20
2023-05-02T19:33:59.083Z,8.13
2023-05-02T19:36:27.565Z,6.22
2023-05-02T19:38:57.896Z,6.75
2023-05-02T19:41:25.983Z,7.40
2023-05-02T19:43:53.019Z,6.97
2023-05-02T19:46:20.808Z,10.35
2023-05-02T19:48:51.051Z,7.65
2023-05-02T19:51:25.760Z,7.53
2023-05-02T19:53:53.943Z,5.88
2023-05-02T19:56:25.339Z,7.47
2023-05-02T19:58:53.261Z,6.68
2023-05-02T20:01:21.310Z,6.85
2023-05-02T20:03:51.719Z,8.98
2023-05-02T20:06:19.600Z,9.10
2023-05-02T20:08:46.822Z,7.82
2023-05-02T20:11:14.369Z,8.23
2023-05-02T20:13:41.519Z,8.88
2023-05-02T20:16:10.397Z,7.15
2023-05-02T20:18:37.879Z,7.00
2023-05-02T20:21:05.331Z,13.05
2023-05-02T20:23:34.897Z,7.55
2023-05-02T20:26:03.584Z,7.20
2023-05-02T20:28:30.918Z,6.22
2023-05-02T20:30:58.564Z,6.88
2023-05-02T20:33:37.002Z,11.00
2023-05-02T20:36:09.478Z,9.82
2023-05-02T20:38:37.354Z,9.25
2023-05-02T20:41:13.169Z,11.30
2023-05-02T20:43:47.524Z,11.05
2023-05-02T20:46:19.106Z,7.80
2023-05-02T20:48:46.432Z,8.10
2023-05-02T20:51:15.050Z,13.98
2023-05-02T20:53:42.388Z,7.38
2023-05-02T20:56:09.673Z,6.95
2023-05-02T20:58:38.696Z,9.45
2023-05-02T21:01:06.104Z,8.93
2023-05-02T21:03:36.699Z,16.23
2023-05-02T21:06:04.337Z,11.60
2023-05-02T21:08:31.915Z,11.52
2023-05-02T21:10:59.251Z,8.25
2023-05-02T21:13:26.866Z,6.78
2023-05-02T21:15:57.338Z,7.70
2023-05-02T21:18:24.517Z,6.70
2023-05-02T21:20:51.967Z,6.03
2023-05-02T21:23:19.186Z,7.47
2023-05-02T21:25:46.541Z,9.38
2023-05-02T21:28:14.035Z,6.75
2023-05-02T21:30:41.298Z,7.93
2023-05-02T21:33:09.576Z,5.43
2023-05-02T21:35:37.361Z,6.22
2023-05-02T21:38:04.693Z,6.30
2023-05-02T21:40:34.791Z,6.28
2023-05-02T21:43:01.834Z,7.90
2023-05-02T21:45:29.926Z,8.15
2023-05-02T21:47:58.138Z,7.90
2023-05-02T21:50:25.466Z,4.97
2023-05-02T21:52:52.728Z,5.60
2023-05-02T21:55:20.134Z,5.32
2023-05-02T21:57:47.275Z,7.05
2023-05-02T22:00:14.864Z,6.15
2023-05-02T22:02:42.013Z,6.15
2023-05-02T22:05:09.645Z,6.85
2023-05-02T22:07:38.152Z,8.32
2023-05-02T22:10:09.585Z,7.38
2023-05-02T22:12:37.025Z,5.38
2023-05-02T22:15:10.520Z,4.50
2023-05-02T22:17:37.532Z,4.70
2023-05-02T22:20:10.140Z,4.20
2023-05-02T22:22:37.107Z,3.15
2023-05-02T22:25:04.877Z,3.75
2023-05-02T22:27:31.901Z,4.85
2023-05-02T22:29:59.296Z,3.78
2023-05-02T22:32:26.960Z,3.35
2023-05-02T22:34:54.498Z,3.53
2023-05-02T22:37:21.531Z,3.35
2023-05-02T22:39:49.233Z,2.78
2023-05-02T22:42:17.077Z,2.88
2023-05-02T22:44:53.732Z,3.30
2023-05-02T22:47:22.959Z,3.40
2023-05-02T22:49:52.188Z,3.00
2023-05-02T22:52:22.558Z,2.97
2023-05-02T22:54:49.934Z,2.75
2023-05-02T22:57:17.058Z,3.28
2023-05-02T22:59:44.806Z,3.28
2023-05-02T23:02:12.194Z,4.97
2023-05-02T23:04:39.562Z,3.58
2023-05-02T23:07:09.426Z,3.28
2023-05-02T23:09:36.956Z,3.28
2023-05-02T23:12:06.771Z,3.38
2023-05-02T23:14:35.108Z,3.03
2023-05-02T23:17:03.470Z,2.92
2023-05-02T23:19:33.532Z,4.00
2023-05-02T23:22:00.679Z,4.20
2023-05-02T23:24:28.522Z,4.25
2023-05-02T23:26:55.917Z,3.83
2023-05-02T23:29:23.869Z,3.90
2023-05-02T23:31:53.483Z,3.65
2023-05-02T23:34:21.963Z,4.15
2023-05-02T23:36:49.109Z,4.78
2023-05-02T23:39:16.450Z,4.63
2023-05-02T23:41:43.540Z,4.13
2023-05-02T23:44:10.876Z,7.68
2023-05-02T23:46:37.964Z,9.25
2023-05-02T23:49:05.339Z,10.05
2023-05-02T23:51:32.650Z,10.20
2023-05-02T23:54:00.122Z,8.32
2023-05-02T23:56:27.363Z,7.82
2023-05-02T23:58:58.285Z,5.53
